Campbell, CA (95008)

1:02 PM PST on March 05, 2015 (GMT -0800)
Millbrook Ct | Change Station
CLOSE
Current Station
Personal Weather Station
Location: Campbell, CA
Elevation: 197 ft
Nearby Weather Stations

Elev 197 ft 37.28 °N, 121.96 °W | Updated 8 minutes ago

Clear
Clear
71.6 °F
Feels Like 77 °F
N
2.7
Wind Variable Wind from West

Today
High -- | Low -- °F
--% Chance of Precip.
Yesterday
High -- | Low -- °F
Precip. -- in
6:33 AM 6:05 PM
Full, 100% visible
Pressure 30.32 in
Visibility 10.0 miles
Clouds Clear
Heat Index 77 °F
Dew Point 42 °F
Humidity 34%
Rainfall in
Snow Depth Not available.
UV 7 out of 12
Pollen 8.70 out of 12
Air Quality Not available.
Flu Activity Not available.
METAR KSJC 051953Z VRB03KT 10SM CLR 19/05 A3032 RMK AO2 SLP265 T01940050

More Conditions Fewer Conditions

Pressure 30.32 in
Visibility 10.0 miles
Clouds Clear
Heat Index 77 °F
Dew Point 42 °F
Humidity 34%
Rainfall in
Snow Depth Not available.
UV 7 out of 12
Pollen 8.70 out of 12
Air Quality Not available.
Flu Activity Not available.
METAR KSJC 051953Z VRB03KT 10SM CLR 19/05 A3032 RMK AO2 SLP265 T01940050

More Conditions Fewer Conditions

10-Day Weather Forecast

Almanac

Astronomy

Mar. 05, 2015 Rise Set
Actual Time
Civil Twilight
Nautical Twilight
Astronomical Twilight
Moon
Length of Visible Light
Length of Day
Tomorrow will be .
, % of the Moon is Illuminated

Today's Extremes

State Highs State Lows

Community

WunderPhotos

Upload Photos

1,802,977 photos uploaded!

WunderBlogs® & News

Nearby

Air Quality

  Air Quality AQ Index Pollutant
Not available.

Snow Depth

Station Depth Elevation

Earthquake Activity

City Distance Mag. Time & Date
Minimum magnitude displayed is 2.5.

Coastal Water Temperatures

Place Temperature

Nearby Weather Stations